<?xml version="1.0" encoding="UTF-8" standalone="no" ?>
<gpx xmlns="http://www.topografix.com/GPX/1/1" xmlns:xsi="http://www.w3.org/2001/XMLSchema-instance" xsi:schemaLocation="http://www.topografix.com/GPX/1/1 http://www.topografix.com/GPX/1/1/gpx.xsd" version="1.1" creator="VisuGPX - https://www.visugpx.com">
  <metadata>
    <name>SteFlaiveLoups-Beignon_10.5km</name>
    <desc><![CDATA[gnerando idor:7847364]]></desc>
  </metadata>
  <trk>
    <name><![CDATA[SteFlaive_10.5km-7847364]]></name>
    <extensions>
      <line xmlns="http://www.topografix.com/GPX/gpx_style/0/2">
        <color>0000FF</color>
        <width>4</width>
      </line>
    </extensions>
    <trkseg>
      <trkpt lat="46.60191" lon="-1.55282">
        <ele>70</ele>
        <time>2023-11-12T16:22:00Z</time>
      </trkpt>
      <trkpt lat="46.60145" lon="-1.55426">
        <ele>68</ele>
        <time>2023-11-12T16:24:26Z</time>
      </trkpt>
      <trkpt lat="46.59847" lon="-1.55207">
        <ele>64</ele>
        <time>2023-11-12T16:31:51Z</time>
      </trkpt>
      <trkpt lat="46.59653" lon="-1.55469">
        <ele>62</ele>
        <time>2023-11-12T16:37:44Z</time>
      </trkpt>
      <trkpt lat="46.59517" lon="-1.55757">
        <ele>62</ele>
        <time>2023-11-12T16:43:05Z</time>
      </trkpt>
      <trkpt lat="46.59488" lon="-1.56031">
        <ele>63</ele>
        <time>2023-11-12T16:47:19Z</time>
      </trkpt>
      <trkpt lat="46.59311" lon="-1.56006">
        <ele>56</ele>
        <time>2023-11-12T16:51:16Z</time>
      </trkpt>
      <trkpt lat="46.59314" lon="-1.55752">
        <ele>58</ele>
        <time>2023-11-12T16:55:09Z</time>
      </trkpt>
      <trkpt lat="46.59314" lon="-1.55521">
        <ele>60</ele>
        <time>2023-11-12T16:58:41Z</time>
      </trkpt>
      <trkpt lat="46.59553" lon="-1.55272">
        <ele>59</ele>
        <time>2023-11-12T17:05:13Z</time>
      </trkpt>
      <trkpt lat="46.59597" lon="-1.55147">
        <ele>59</ele>
        <time>2023-11-12T17:07:22Z</time>
      </trkpt>
      <trkpt lat="46.59526" lon="-1.54782">
        <ele>62</ele>
        <time>2023-11-12T17:13:10Z</time>
      </trkpt>
      <trkpt lat="46.59435" lon="-1.54765">
        <ele>60</ele>
        <time>2023-11-12T17:15:12Z</time>
      </trkpt>
      <trkpt lat="46.59446" lon="-1.54602">
        <ele>63</ele>
        <time>2023-11-12T17:17:43Z</time>
      </trkpt>
      <trkpt lat="46.59355" lon="-1.54366">
        <ele>62</ele>
        <time>2023-11-12T17:21:51Z</time>
      </trkpt>
      <trkpt lat="46.59287" lon="-1.54049">
        <ele>63</ele>
        <time>2023-11-12T17:26:55Z</time>
      </trkpt>
      <trkpt lat="46.59541" lon="-1.53911">
        <ele>67</ele>
        <time>2023-11-12T17:32:57Z</time>
      </trkpt>
      <trkpt lat="46.5985" lon="-1.53705">
        <ele>73</ele>
        <time>2023-11-12T17:40:31Z</time>
      </trkpt>
      <trkpt lat="46.5998" lon="-1.53375">
        <ele>72</ele>
        <time>2023-11-12T17:46:19Z</time>
      </trkpt>
      <trkpt lat="46.60039" lon="-1.53323">
        <ele>72</ele>
        <time>2023-11-12T17:47:51Z</time>
      </trkpt>
      <trkpt lat="46.60042" lon="-1.53177">
        <ele>72</ele>
        <time>2023-11-12T17:50:05Z</time>
      </trkpt>
      <trkpt lat="46.60018" lon="-1.53139">
        <ele>72</ele>
        <time>2023-11-12T17:50:53Z</time>
      </trkpt>
      <trkpt lat="46.60148" lon="-1.52139">
        <ele>71</ele>
        <time>2023-11-12T18:06:26Z</time>
      </trkpt>
      <trkpt lat="46.60387" lon="-1.52632">
        <ele>73</ele>
        <time>2023-11-12T18:15:39Z</time>
      </trkpt>
      <trkpt lat="46.60393" lon="-1.52933">
        <ele>71</ele>
        <time>2023-11-12T18:20:15Z</time>
      </trkpt>
      <trkpt lat="46.60443" lon="-1.53195">
        <ele>72</ele>
        <time>2023-11-12T18:24:24Z</time>
      </trkpt>
      <trkpt lat="46.60741" lon="-1.53173">
        <ele>71</ele>
        <time>2023-11-12T18:31:03Z</time>
      </trkpt>
      <trkpt lat="46.6105" lon="-1.53156">
        <ele>70</ele>
        <time>2023-11-12T18:37:55Z</time>
      </trkpt>
      <trkpt lat="46.60988" lon="-1.53336">
        <ele>70</ele>
        <time>2023-11-12T18:41:00Z</time>
      </trkpt>
      <trkpt lat="46.60986" lon="-1.53508">
        <ele>70</ele>
        <time>2023-11-12T18:43:37Z</time>
      </trkpt>
      <trkpt lat="46.6105" lon="-1.53684">
        <ele>71</ele>
        <time>2023-11-12T18:46:40Z</time>
      </trkpt>
      <trkpt lat="46.60997" lon="-1.53993">
        <ele>74</ele>
        <time>2023-11-12T18:51:32Z</time>
      </trkpt>
      <trkpt lat="46.61021" lon="-1.54126">
        <ele>73</ele>
        <time>2023-11-12T18:53:38Z</time>
      </trkpt>
      <trkpt lat="46.6123" lon="-1.5425">
        <ele>73</ele>
        <time>2023-11-12T18:58:39Z</time>
      </trkpt>
      <trkpt lat="46.61451" lon="-1.54491">
        <ele>71</ele>
        <time>2023-11-12T19:04:48Z</time>
      </trkpt>
      <trkpt lat="46.61416" lon="-1.54675">
        <ele>70</ele>
        <time>2023-11-12T19:07:43Z</time>
      </trkpt>
      <trkpt lat="46.61292" lon="-1.54847">
        <ele>71</ele>
        <time>2023-11-12T19:11:31Z</time>
      </trkpt>
      <trkpt lat="46.61189" lon="-1.54813">
        <ele>69</ele>
        <time>2023-11-12T19:13:52Z</time>
      </trkpt>
      <trkpt lat="46.61071" lon="-1.54907">
        <ele>68</ele>
        <time>2023-11-12T19:16:52Z</time>
      </trkpt>
      <trkpt lat="46.60865" lon="-1.55366">
        <ele>71</ele>
        <time>2023-11-12T19:25:14Z</time>
      </trkpt>
      <trkpt lat="46.60764" lon="-1.55748">
        <ele>70</ele>
        <time>2023-11-12T19:31:30Z</time>
      </trkpt>
      <trkpt lat="46.60623" lon="-1.55709">
        <ele>69</ele>
        <time>2023-11-12T19:34:41Z</time>
      </trkpt>
      <trkpt lat="46.60484" lon="-1.55748">
        <ele>65</ele>
        <time>2023-11-12T19:37:50Z</time>
      </trkpt>
      <trkpt lat="46.60372" lon="-1.55551">
        <ele>69</ele>
        <time>2023-11-12T19:41:44Z</time>
      </trkpt>
      <trkpt lat="46.60125" lon="-1.55439">
        <ele>67</ele>
        <time>2023-11-12T19:47:30Z</time>
      </trkpt>
      <trkpt lat="46.60192" lon="-1.55276">
        <ele>70</ele>
        <time>2023-11-12T19:50:24Z</time>
      </trkpt>
    </trkseg>
  </trk>
</gpx>